Time;durP1;ratioP1;P1;durP2;ratioP2;P2;SDS_P1;SDS_P2;PMS_P1;PMS_P2;Temp;Humidity;BMP_temperature;BMP_pressure;BME280_temperature;BME280_humidity;BME280_pressure;Samples;Min_cycle;Max_cycle;Signal;HPM_P1;HPM_P2
2023/03/19 00:00:43;;;;;;;0.60;0.60;;;;;;;-4.44;48.35;100571.22;4975302;28;20571;-82
2023/03/19 00:03:10;;;;;;;0.80;0.80;;;;;;;-4.40;48.56;100582.41;4992687;28;20197;-85
2023/03/19 00:05:37;;;;;;;0.75;0.75;;;;;;;-4.46;48.69;100575.75;4993356;28;20061;-83
2023/03/19 00:08:04;;;;;;;0.70;0.70;;;;;;;-4.50;48.87;100576.94;4992056;28;20058;-81
2023/03/19 00:10:32;;;;;;;0.70;0.70;;;;;;;-4.64;49.34;100571.81;4975096;28;20047;-82
2023/03/19 00:12:59;;;;;;;0.80;0.80;;;;;;;-4.75;49.39;100559.41;4991935;28;20078;-81
2023/03/19 00:15:26;;;;;;;0.80;0.80;;;;;;;-4.67;49.69;100561.50;4992093;28;20046;-81
2023/03/19 00:17:55;;;;;;;0.70;0.70;;;;;;;-4.72;49.59;100553.91;4992056;28;20066;-83
2023/03/19 00:20:22;;;;;;;0.52;0.52;;;;;;;-4.66;49.84;100573.69;4992206;28;20052;-81
2023/03/19 00:22:49;;;;;;;0.65;0.65;;;;;;;-4.70;49.57;100562.53;4992379;28;20050;-81
2023/03/19 00:25:16;;;;;;;0.70;0.70;;;;;;;-4.77;50.05;100563.91;4992554;28;20141;-83
2023/03/19 00:27:43;;;;;;;0.82;0.82;;;;;;;-4.85;50.07;100553.09;4975167;28;20042;-82
2023/03/19 00:30:11;;;;;;;0.70;0.70;;;;;;;-4.75;50.56;100562.03;4974295;28;20074;-83
2023/03/19 00:32:39;;;;;;;0.70;0.70;;;;;;;-4.77;50.29;100544.66;4974668;28;20098;-82
2023/03/19 00:35:07;;;;;;;0.80;0.80;;;;;;;-4.82;50.36;100543.16;4991130;28;20086;-82
2023/03/19 00:37:35;;;;;;;0.75;0.75;;;;;;;-4.80;50.74;100557.06;4974359;28;20046;-84
2023/03/19 00:40:03;;;;;;;0.68;0.68;;;;;;;-4.85;50.87;100551.28;4991554;28;20060;-82
2023/03/19 00:42:32;;;;;;;0.75;0.75;;;;;;;-4.96;50.93;100542.44;4974097;28;20093;-82
2023/03/19 00:44:59;;;;;;;0.57;0.57;;;;;;;-4.97;50.97;100538.97;4991441;28;20051;-82
2023/03/19 00:47:27;;;;;;;0.70;0.70;;;;;;;-4.98;51.08;100531.22;4974249;28;20073;-82
2023/03/19 00:49:54;;;;;;;0.57;0.57;;;;;;;-4.94;51.38;100543.19;4991327;28;20046;-83
2023/03/19 00:52:22;;;;;;;0.80;0.80;;;;;;;-4.92;51.46;100538.66;4973828;28;20066;-83
2023/03/19 00:54:49;;;;;;;0.70;0.70;;;;;;;-4.98;51.53;100526.78;4991573;28;20081;-83
2023/03/19 00:57:18;;;;;;;0.80;0.80;;;;;;;-4.98;51.22;100528.56;4991615;28;20050;-82
2023/03/19 00:59:49;;;;;;;0.70;0.70;;;;;;;-5.02;51.52;100534.03;4991055;28;20066;-81
2023/03/19 01:02:16;;;;;;;0.80;0.80;;;;;;;-5.10;51.78;100533.72;4974241;28;20428;-81
2023/03/19 01:04:44;;;;;;;0.85;0.85;;;;;;;-5.00;52.16;100541.84;4991323;28;20042;-82
2023/03/19 01:07:11;;;;;;;0.70;0.70;;;;;;;-5.04;52.18;100543.00;4957720;28;20053;-81
2023/03/19 01:09:40;;;;;;;0.75;0.75;;;;;;;-5.05;52.36;100536.88;4990915;28;20053;-82
2023/03/19 01:12:08;;;;;;;0.75;0.75;;;;;;;-5.08;52.62;100529.22;4991524;28;20057;-82
2023/03/19 01:14:35;;;;;;;0.80;0.80;;;;;;;-5.07;52.52;100535.31;4973884;28;20128;-83
2023/03/19 01:17:02;;;;;;;0.77;0.77;;;;;;;-5.12;52.69;100530.34;4957749;28;20042;-82
2023/03/19 01:19:29;;;;;;;0.90;0.90;;;;;;;-5.16;52.78;100534.16;4973610;28;20086;-82
2023/03/19 01:21:56;;;;;;;0.70;0.70;;;;;;;-5.18;52.78;100536.06;4991232;28;20050;-83
2023/03/19 01:24:29;;;;;;;0.82;0.82;;;;;;;-5.18;53.14;100524.69;4974763;28;20539;-83
2023/03/19 01:26:57;;;;;;;0.80;0.80;;;;;;;-5.22;53.26;100518.78;4974481;28;20531;-81
2023/03/19 01:29:29;;;;;;;0.75;0.75;;;;;;;-5.25;53.18;100522.47;4991086;28;20051;-82
2023/03/19 01:32:02;;;;;;;0.80;0.80;;;;;;;-5.27;53.37;100534.06;4989154;28;20124;-83
2023/03/19 01:34:52;;;;;;;0.55;0.55;;;;;;;-5.40;53.77;100505.09;4990074;28;20054;-82
2023/03/19 01:37:20;;;;;;;0.63;0.63;;;;;;;-5.30;53.86;100521.94;4989609;28;20158;-81
2023/03/19 01:39:47;;;;;;;0.98;0.98;;;;;;;-5.37;53.87;100517.22;4989551;28;20047;-82
2023/03/19 01:42:14;;;;;;;0.85;0.85;;;;;;;-5.52;54.07;100496.28;4990524;28;20429;-81
2023/03/19 01:44:48;;;;;;;0.60;0.60;;;;;;;-5.42;54.12;100517.53;4989509;28;20046;-81
2023/03/19 01:47:30;;;;;;;0.70;0.70;;;;;;;-5.42;54.16;100517.53;4969775;28;20573;-82
2023/03/19 01:50:34;;;;;;;0.63;0.63;;;;;;;-5.52;54.30;100506.81;4964909;28;20465;-83
2023/03/19 01:53:25;;;;;;;0.77;0.77;;;;;;;-5.51;54.43;100508.47;4966534;28;20061;-83
2023/03/19 01:56:28;;;;;;;0.80;0.80;;;;;;;-5.54;54.54;100506.06;4974373;28;20058;-82
2023/03/19 01:59:09;;;;;;;0.80;0.80;;;;;;;-5.62;54.87;100504.88;4986523;28;20071;-82
2023/03/19 02:02:13;;;;;;;0.70;0.70;;;;;;;-5.63;55.13;100505.84;4989145;28;20054;-84
2023/03/19 02:04:41;;;;;;;0.70;0.70;;;;;;;-5.67;54.55;100499.97;4956920;28;20486;-83
2023/03/19 02:07:08;;;;;;;0.80;0.80;;;;;;;-5.66;55.02;100502.47;4972794;28;20057;-82
2023/03/19 02:09:36;;;;;;;0.80;0.80;;;;;;;-5.67;55.06;100495.53;4971222;28;20417;-82
2023/03/19 02:12:03;;;;;;;0.70;0.70;;;;;;;-5.68;55.10;100498.25;4939352;28;20073;-82
2023/03/19 02:14:30;;;;;;;0.73;0.73;;;;;;;-5.72;55.22;100497.63;4938523;28;20054;-82
2023/03/19 02:16:58;;;;;;;0.70;0.70;;;;;;;-5.72;55.44;100488.88;4937804;28;20520;-83
2023/03/19 02:19:33;;;;;;;0.60;0.60;;;;;;;-5.76;55.60;100493.50;4969668;28;20059;-83
2023/03/19 02:22:01;;;;;;;0.50;0.50;;;;;;;-5.76;55.51;100487.41;4981290;28;20671;-82
2023/03/19 02:24:34;;;;;;;0.70;0.70;;;;;;;-5.77;55.56;100493.59;4957712;28;20101;-83
2023/03/19 02:27:06;;;;;;;0.63;0.63;;;;;;;-5.83;55.86;100491.41;4973398;28;20081;-82
2023/03/19 02:29:37;;;;;;;0.77;0.77;;;;;;;-5.81;55.94;100493.00;4989582;28;20057;-82
2023/03/19 02:32:04;;;;;;;0.75;0.75;;;;;;;-5.82;55.91;100491.31;4989198;28;20552;-82
2023/03/19 02:34:34;;;;;;;1.00;1.00;;;;;;;-5.84;55.90;100489.72;4990783;28;20049;-83
2023/03/19 02:37:09;;;;;;;0.68;0.68;;;;;;;-5.85;56.14;100493.28;4988960;28;20049;-83
2023/03/19 02:39:48;;;;;;;0.85;0.85;;;;;;;-5.87;56.07;100490.78;4973527;28;20046;-82
2023/03/19 02:42:16;;;;;;;0.57;0.57;;;;;;;-5.94;56.33;100495.63;4990710;28;20116;-83
2023/03/19 02:44:45;;;;;;;0.90;0.90;;;;;;;-5.97;56.41;100487.13;4978009;28;20050;-83
2023/03/19 02:47:12;;;;;;;0.70;0.70;;;;;;;-6.01;56.58;100475.13;4991057;28;20056;-82
2023/03/19 02:49:39;;;;;;;0.82;0.82;;;;;;;-5.97;56.66;100492.38;4990391;28;20073;-82
2023/03/19 02:52:06;;;;;;;0.80;0.80;;;;;;;-5.92;56.99;100480.56;4972577;28;20078;-84
2023/03/19 02:54:33;;;;;;;0.80;0.80;;;;;;;-5.90;56.83;100480.44;4990108;28;20058;-83
2023/03/19 02:57:00;;;;;;;0.95;0.95;;;;;;;-5.99;56.72;100481.94;4990410;28;20050;-82
2023/03/19 02:59:27;;;;;;;0.80;0.80;;;;;;;-5.99;56.93;100473.22;4973169;28;20046;-84
2023/03/19 03:01:54;;;;;;;0.70;0.70;;;;;;;-6.00;57.06;100477.66;4972234;28;20145;-83
2023/03/19 03:04:21;;;;;;;0.70;0.70;;;;;;;-6.03;57.08;100477.84;4989470;28;20058;-83
2023/03/19 03:06:48;;;;;;;0.82;0.82;;;;;;;-6.05;56.94;100476.25;4989530;28;20046;-82
2023/03/19 03:09:15;;;;;;;0.77;0.77;;;;;;;-6.06;57.41;100474.56;4969546;28;20050;-82
2023/03/19 03:11:43;;;;;;;0.77;0.77;;;;;;;-6.08;57.36;100465.94;4973064;28;20051;-82
2023/03/19 03:14:11;;;;;;;0.70;0.70;;;;;;;-6.08;57.21;100472.03;4991164;28;20113;-84
2023/03/19 03:16:39;;;;;;;0.80;0.80;;;;;;;-6.09;57.46;100470.38;4977608;28;20616;-82
2023/03/19 03:19:06;;;;;;;0.90;0.90;;;;;;;-6.11;57.38;100461.72;4993791;28;20573;-82
2023/03/19 03:21:34;;;;;;;0.90;0.90;;;;;;;-6.14;57.56;100456.69;4992984;28;20154;-83
2023/03/19 03:24:02;;;;;;;0.80;0.80;;;;;;;-6.19;57.62;100464.88;4994058;28;20053;-83
2023/03/19 03:26:29;;;;;;;0.90;0.90;;;;;;;-6.15;57.80;100476.03;4993055;28;20113;-83
2023/03/19 03:28:56;;;;;;;0.90;0.90;;;;;;;-6.13;57.93;100459.22;4993620;28;20572;-83
2023/03/19 03:31:23;;;;;;;0.80;0.80;;;;;;;-6.08;57.80;100460.69;4993859;28;20073;-81
2023/03/19 03:33:51;;;;;;;0.77;0.77;;;;;;;-6.14;57.87;100465.41;4993667;28;20054;-83
2023/03/19 03:36:18;;;;;;;0.95;0.95;;;;;;;-6.17;57.80;100459.53;4976258;28;20059;-82
2023/03/19 03:38:45;;;;;;;0.90;0.90;;;;;;;-6.18;58.01;100466.56;4993789;28;20494;-82
2023/03/19 03:41:12;;;;;;;0.90;0.90;;;;;;;-6.18;58.05;100463.94;4976104;28;20046;-81
2023/03/19 03:43:39;;;;;;;0.80;0.80;;;;;;;-6.21;58.23;100464.13;4993667;28;20057;-83
2023/03/19 03:46:08;;;;;;;0.90;0.90;;;;;;;-6.24;58.19;100456.44;4976028;28;20042;-83
2023/03/19 03:48:35;;;;;;;0.77;0.77;;;;;;;-6.23;58.33;100463.38;4993686;28;20058;-83
2023/03/19 03:51:03;;;;;;;0.70;0.70;;;;;;;-6.24;58.44;100458.25;4993556;28;20046;-83
2023/03/19 03:53:31;;;;;;;0.90;0.90;;;;;;;-6.24;58.29;100447.72;4976141;28;20064;-82
2023/03/19 03:55:59;;;;;;;0.90;0.90;;;;;;;-6.24;58.57;100455.63;4975893;28;20129;-82
2023/03/19 03:58:28;;;;;;;0.82;0.82;;;;;;;-6.20;58.54;100457.06;4976338;28;20141;-83
2023/03/19 04:00:55;;;;;;;0.77;0.77;;;;;;;-6.15;58.56;100447.97;4959976;28;20077;-82
2023/03/19 04:03:23;;;;;;;0.70;0.70;;;;;;;-6.12;58.34;100449.56;4976745;28;20479;-83
2023/03/19 04:05:51;;;;;;;0.73;0.73;;;;;;;-6.04;58.24;100449.03;4976263;28;20062;-83
2023/03/19 04:08:20;;;;;;;0.73;0.73;;;;;;;-6.04;58.09;100439.34;4976481;28;20126;-83
2023/03/19 04:10:47;;;;;;;0.85;0.85;;;;;;;-6.00;58.22;100445.22;4972662;28;20122;-83
2023/03/19 04:13:16;;;;;;;0.73;0.73;;;;;;;-6.02;58.17;100444.53;4963861;28;20053;-82
2023/03/19 04:15:43;;;;;;;0.85;0.85;;;;;;;-6.05;58.30;100434.19;4993519;28;20050;-81
2023/03/19 04:18:12;;;;;;;0.70;0.70;;;;;;;-6.04;58.23;100431.47;4991994;28;20074;-83
2023/03/19 04:20:42;;;;;;;0.80;0.80;;;;;;;-5.98;58.25;100438.09;4975843;28;20158;-83
2023/03/19 04:23:09;;;;;;;0.95;0.95;;;;;;;-5.95;58.21;100437.88;4991499;28;20112;-82
2023/03/19 04:25:40;;;;;;;0.95;0.95;;;;;;;-5.92;58.16;100427.97;4992440;28;20069;-83
2023/03/19 04:28:07;;;;;;;0.80;0.80;;;;;;;-5.85;58.11;100441.53;4976120;28;20081;-81
2023/03/19 04:30:35;;;;;;;0.93;0.93;;;;;;;-5.81;58.03;100431.66;4993307;28;20145;-82
2023/03/19 04:33:03;;;;;;;0.82;0.82;;;;;;;-5.79;58.01;100441.13;4992574;28;20124;-82
2023/03/19 04:35:30;;;;;;;0.75;0.75;;;;;;;-5.74;58.12;100435.56;4991303;28;20620;-82
2023/03/19 04:37:57;;;;;;;0.90;0.90;;;;;;;-5.70;57.95;100430.00;4992476;28;20101;-83
2023/03/19 04:40:25;;;;;;;0.95;0.95;;;;;;;-5.66;58.03;100433.25;4958961;28;20501;-83
2023/03/19 04:42:52;;;;;;;0.93;0.93;;;;;;;-5.63;58.01;100425.13;4975002;28;20084;-82
2023/03/19 04:45:31;;;;;;;0.80;0.80;;;;;;;-5.58;58.01;100422.19;4960971;28;20137;-83
2023/03/19 04:48:00;;;;;;;0.85;0.85;;;;;;;-5.49;57.78;100426.81;4965820;28;20050;-84
2023/03/19 04:50:29;;;;;;;0.93;0.93;;;;;;;-5.45;57.98;100428.28;4971318;28;20089;-82
2023/03/19 04:52:57;;;;;;;0.93;0.93;;;;;;;-5.39;57.65;100432.25;4974145;28;20482;-83
2023/03/19 04:55:25;;;;;;;1.00;1.00;;;;;;;-5.33;57.50;100426.59;4973901;28;20054;-82
2023/03/19 04:58:00;;;;;;;0.70;0.70;;;;;;;-5.26;57.46;100422.56;4955177;28;20047;-81
2023/03/19 05:00:30;;;;;;;0.85;0.85;;;;;;;-5.17;57.29;100423.69;4973344;28;20054;-81
2023/03/19 05:02:58;;;;;;;0.93;0.93;;;;;;;-5.11;57.16;100428.56;4974787;28;20081;-81
2023/03/19 05:05:27;;;;;;;0.90;0.90;;;;;;;-5.03;57.25;100421.78;4986093;28;20714;-80
2023/03/19 05:07:56;;;;;;;0.60;0.60;;;;;;;-4.97;57.06;100423.13;4976602;28;20417;-81
2023/03/19 05:10:24;;;;;;;0.77;0.77;;;;;;;-4.90;56.86;100426.16;5003524;28;20046;-82
2023/03/19 05:12:51;;;;;;;0.82;0.82;;;;;;;-4.79;56.42;100423.59;4992077;28;20054;-79
2023/03/19 05:15:19;;;;;;;0.80;0.80;;;;;;;-4.75;56.21;100422.41;4976612;28;20453;-83
2023/03/19 05:17:56;;;;;;;0.90;0.90;;;;;;;-4.65;55.91;100430.50;4974378;28;20551;-80
2023/03/19 05:20:30;;;;;;;0.90;0.90;;;;;;;-4.51;55.66;100419.75;4974166;28;20081;-81
2023/03/19 05:23:04;;;;;;;0.70;0.70;;;;;;;-4.43;55.58;100422.69;4973994;28;20046;-82
2023/03/19 05:25:41;;;;;;;0.85;0.85;;;;;;;-4.33;55.27;100422.81;4977800;28;20050;-82
2023/03/19 05:28:12;;;;;;;0.82;0.82;;;;;;;-4.21;55.32;100421.09;4958042;28;20425;-82
2023/03/19 05:30:40;;;;;;;1.08;1.08;;;;;;;-4.09;55.08;100422.81;4991701;28;20042;-82
2023/03/19 05:33:16;;;;;;;1.02;1.02;;;;;;;-3.98;54.82;100420.19;4974209;28;20414;-81
2023/03/19 05:35:44;;;;;;;0.90;0.90;;;;;;;-3.89;54.52;100404.63;4973948;28;20640;-83
2023/03/19 05:38:21;;;;;;;0.70;0.70;;;;;;;-3.75;54.42;100409.66;4975026;28;20149;-82
2023/03/19 05:41:02;;;;;;;0.80;0.80;;;;;;;-3.58;54.53;100405.72;4973709;28;20061;-81
2023/03/19 05:43:37;;;;;;;0.63;0.63;;;;;;;-3.43;53.93;100406.34;4958066;28;20521;-83
2023/03/19 05:46:07;;;;;;;0.75;0.75;;;;;;;-3.38;53.44;100404.19;4990210;28;20141;-83
2023/03/19 05:48:36;;;;;;;0.80;0.80;;;;;;;-3.31;53.48;100397.47;4989988;28;20054;-82
2023/03/19 05:51:04;;;;;;;0.80;0.80;;;;;;;-3.26;53.31;100392.66;4982545;28;20057;-85
2023/03/19 05:53:35;;;;;;;0.70;0.70;;;;;;;-3.14;53.11;100391.69;4979564;28;20046;-82
2023/03/19 05:56:22;;;;;;;0.80;0.80;;;;;;;-3.05;53.05;100390.94;4982443;28;20046;-82
2023/03/19 05:59:05;;;;;;;0.80;0.80;;;;;;;-2.98;53.11;100390.44;4971398;28;20046;-82
2023/03/19 06:01:37;;;;;;;0.70;0.70;;;;;;;-2.86;52.79;100381.50;4964152;28;20038;-84
2023/03/19 06:04:04;;;;;;;0.90;0.90;;;;;;;-2.79;52.80;100384.50;4970358;28;20186;-86
2023/03/19 06:06:32;;;;;;;0.90;0.90;;;;;;;-2.71;52.65;100371.50;4983596;28;20082;-81
2023/03/19 06:09:00;;;;;;;0.65;0.65;;;;;;;-2.58;52.16;100371.31;4968571;28;20051;-83
2023/03/19 06:11:39;;;;;;;0.60;0.60;;;;;;;-2.54;52.13;100363.03;4938615;28;20140;-84
2023/03/19 06:14:26;;;;;;;0.77;0.77;;;;;;;-2.46;52.02;100365.03;4981552;28;20054;-81
2023/03/19 06:17:14;;;;;;;0.70;0.70;;;;;;;-2.54;52.04;100362.19;4963389;28;20784;-80
2023/03/19 06:19:41;;;;;;;0.90;0.90;;;;;;;-2.42;51.75;100359.34;4970280;28;20077;-80
2023/03/19 06:22:09;;;;;;;0.80;0.80;;;;;;;-2.24;51.47;100359.63;4969948;28;20050;-79
2023/03/19 06:24:36;;;;;;;0.70;0.70;;;;;;;-2.19;51.79;100351.31;4968599;28;20069;-81
2023/03/19 06:27:03;;;;;;;0.95;0.95;;;;;;;-2.01;51.64;100354.19;4970082;28;20480;-81
2023/03/19 06:29:31;;;;;;;0.80;0.80;;;;;;;-1.89;51.04;100347.03;4970635;28;20544;-81
2023/03/19 06:32:07;;;;;;;0.80;0.80;;;;;;;-1.91;51.32;100346.31;4974411;28;20050;-82
2023/03/19 06:34:40;;;;;;;1.05;1.05;;;;;;;-1.82;50.98;100346.38;4962677;28;20779;-79
2023/03/19 06:37:08;;;;;;;0.60;0.60;;;;;;;-1.72;50.81;100341.13;4976244;28;20133;-81
2023/03/19 06:39:35;;;;;;;0.82;0.82;;;;;;;-1.62;50.98;100339.34;4977347;28;20152;-81
2023/03/19 06:42:02;;;;;;;0.70;0.70;;;;;;;-1.42;50.72;100342.06;4989297;28;20050;-81
2023/03/19 06:44:29;;;;;;;0.85;0.85;;;;;;;-1.31;50.52;100337.50;4969642;28;20061;-82
2023/03/19 06:46:56;;;;;;;0.80;0.80;;;;;;;-1.26;50.34;100333.63;4981796;28;20054;-79
2023/03/19 06:49:24;;;;;;;0.90;0.90;;;;;;;-1.33;50.31;100333.31;4969540;28;20047;-79
2023/03/19 06:51:51;;;;;;;0.80;0.80;;;;;;;-1.42;50.51;100329.69;4986314;28;20050;-81
2023/03/19 06:54:18;;;;;;;0.80;0.80;;;;;;;-1.37;50.44;100332.75;4987040;28;20822;-80
2023/03/19 06:56:45;;;;;;;0.88;0.88;;;;;;;-1.29;50.29;100333.88;4989944;28;20043;-79
2023/03/19 06:59:12;;;;;;;0.80;0.80;;;;;;;-1.20;50.45;100333.06;4990649;28;20105;-79
2023/03/19 07:01:40;;;;;;;0.77;0.77;;;;;;;-1.09;50.09;100327.63;4992201;28;20050;-79
2023/03/19 07:04:08;;;;;;;0.82;0.82;;;;;;;-0.92;49.94;100329.59;4992347;28;20054;-81
2023/03/19 07:06:36;;;;;;;1.08;1.08;;;;;;;-0.87;49.39;100313.31;4960975;28;20057;-78
2023/03/19 07:09:03;;;;;;;0.75;0.75;;;;;;;-0.77;49.48;100329.22;4988394;28;20051;-79
2023/03/19 07:11:31;;;;;;;0.80;0.80;;;;;;;-0.68;49.74;100331.03;4981658;28;20172;-80
2023/03/19 07:14:02;;;;;;;0.90;0.90;;;;;;;-0.74;49.59;100326.28;4975226;28;20053;-81
2023/03/19 07:16:29;;;;;;;0.90;0.90;;;;;;;-0.76;49.42;100305.22;4992849;28;20061;-81
2023/03/19 07:18:56;;;;;;;0.88;0.88;;;;;;;-0.73;49.34;100320.00;4992813;28;20085;-81
2023/03/19 07:21:23;;;;;;;0.70;0.70;;;;;;;-0.61;49.33;100318.88;4975830;28;20058;-82
2023/03/19 07:23:50;;;;;;;0.70;0.70;;;;;;;-0.34;49.21;100302.25;4993884;28;20062;-87
2023/03/19 07:26:18;;;;;;;0.85;0.85;;;;;;;-0.17;48.71;100308.63;4990858;28;20050;-83
2023/03/19 07:28:45;;;;;;;0.80;0.80;;;;;;;-0.25;48.53;100304.03;4976373;28;20054;-84
2023/03/19 07:31:12;;;;;;;0.90;0.90;;;;;;;-0.13;48.46;100307.34;4992855;28;20053;-84
2023/03/19 07:33:39;;;;;;;0.90;0.90;;;;;;;0.13;47.99;100320.84;4991181;28;20061;-85
2023/03/19 07:36:06;;;;;;;1.00;1.00;;;;;;;0.11;47.76;100300.75;4972153;28;20417;-83
2023/03/19 07:38:33;;;;;;;0.90;0.90;;;;;;;0.10;47.50;100301.69;4979801;28;20073;-86
2023/03/19 07:41:00;;;;;;;0.80;0.80;;;;;;;0.29;47.54;100309.59;4989666;28;20148;-86
2023/03/19 07:43:30;;;;;;;1.10;1.10;;;;;;;0.40;47.14;100319.19;4986371;28;20514;-86
2023/03/19 07:45:57;;;;;;;1.02;1.02;;;;;;;0.42;46.72;100302.13;4968270;28;20042;-83
2023/03/19 07:48:25;;;;;;;1.00;1.00;;;;;;;0.49;46.69;100306.88;4988689;28;20055;-83
2023/03/19 07:50:53;;;;;;;1.00;1.00;;;;;;;0.79;46.45;100303.91;4985469;28;20050;-85
2023/03/19 07:53:20;;;;;;;1.08;1.08;;;;;;;0.89;46.30;100303.84;4981751;28;20047;-83
2023/03/19 07:55:47;;;;;;;0.90;0.90;;;;;;;1.25;45.91;100302.00;4967682;28;20046;-82
2023/03/19 07:58:15;;;;;;;1.30;1.20;;;;;;;1.40;45.29;100297.00;4990996;28;20422;-82
2023/03/19 08:00:44;;;;;;;1.00;1.00;;;;;;;1.14;44.78;100302.25;4983095;28;20097;-83
2023/03/19 08:03:11;;;;;;;1.42;1.33;;;;;;;1.06;45.21;100288.88;4989344;28;20414;-83
2023/03/19 08:05:38;;;;;;;0.80;0.80;;;;;;;1.33;45.11;100284.47;4984310;28;20604;-82
2023/03/19 08:08:06;;;;;;;1.30;1.20;;;;;;;1.70;44.75;100286.91;4985187;28;20115;-82
2023/03/19 08:10:33;;;;;;;1.05;1.05;;;;;;;2.10;44.17;100288.13;4979872;28;20490;-83
2023/03/19 08:13:08;;;;;;;1.05;1.05;;;;;;;2.44;43.18;100279.31;4943939;28;20050;-82
2023/03/19 08:15:36;;;;;;;1.13;1.10;;;;;;;2.75;42.60;100287.59;4987754;28;20420;-84
2023/03/19 08:18:03;;;;;;;1.00;1.00;;;;;;;3.01;42.39;100277.66;4987748;28;20047;-85
2023/03/19 08:20:31;;;;;;;1.10;1.10;;;;;;;3.30;41.36;100268.34;4986043;28;20043;-87
2023/03/19 08:22:59;;;;;;;1.20;1.20;;;;;;;3.68;41.14;100260.66;4975024;28;20100;-84
2023/03/19 08:25:31;;;;;;;1.00;1.00;;;;;;;4.02;40.56;100267.56;4982318;28;20541;-83
2023/03/19 08:28:00;;;;;;;1.08;1.08;;;;;;;4.28;39.50;100262.81;4972717;28;20453;-86
2023/03/19 08:30:28;;;;;;;1.02;1.02;;;;;;;4.16;39.48;100256.19;4975472;28;20517;-82
2023/03/19 08:32:58;;;;;;;1.10;1.10;;;;;;;4.50;39.23;100257.72;4992405;28;20050;-85
2023/03/19 08:35:28;;;;;;;1.30;1.20;;;;;;;4.68;38.75;100246.75;4989666;28;20148;-86
2023/03/19 08:37:56;;;;;;;1.30;1.20;;;;;;;4.47;39.06;100255.38;4925903;28;20082;-84
2023/03/19 08:40:23;;;;;;;1.02;1.02;;;;;;;4.83;38.18;100241.47;4942152;28;20069;-82
2023/03/19 08:43:04;;;;;;;0.98;0.98;;;;;;;5.14;37.88;100253.00;4952771;28;20050;-85
2023/03/19 08:45:34;;;;;;;1.30;1.20;;;;;;;5.61;37.04;100235.00;4975491;28;20589;-83
2023/03/19 08:48:12;;;;;;;1.10;1.10;;;;;;;5.99;36.56;100225.09;4944305;28;20080;-82
2023/03/19 08:50:40;;;;;;;0.93;0.93;;;;;;;6.02;36.50;100227.41;4958913;28;20406;-84
2023/03/19 08:53:07;;;;;;;1.10;1.10;;;;;;;6.23;35.91;100223.16;4992044;28;20560;-82
2023/03/19 08:55:34;;;;;;;1.00;1.00;;;;;;;6.24;35.54;100222.13;4992162;28;20145;-83
2023/03/19 08:58:01;;;;;;;1.02;1.02;;;;;;;6.62;35.30;100230.03;4972646;28;20074;-84
2023/03/19 09:00:28;;;;;;;1.10;1.10;;;;;;;6.95;34.51;100207.06;4985738;28;20057;-83
2023/03/19 09:02:55;;;;;;;1.08;1.08;;;;;;;6.61;34.92;100193.47;4983204;28;20046;-82
2023/03/19 09:05:23;;;;;;;1.10;1.10;;;;;;;6.82;34.63;100190.81;4981155;28;20054;-82
2023/03/19 09:07:51;;;;;;;1.00;1.00;;;;;;;6.90;34.63;100196.06;4978218;28;20446;-81
2023/03/19 09:10:18;;;;;;;1.00;1.00;;;;;;;7.44;34.13;100191.16;4972342;28;20055;-83
2023/03/19 09:12:45;;;;;;;1.00;1.00;;;;;;;7.50;33.59;100182.34;4955021;28;20054;-81
2023/03/19 09:15:16;;;;;;;1.00;1.00;;;;;;;7.52;33.55;100189.16;4972400;28;20414;-82
2023/03/19 09:17:43;;;;;;;1.10;1.10;;;;;;;7.61;33.73;100189.84;4981385;28;20108;-83
2023/03/19 09:20:21;;;;;;;1.08;1.08;;;;;;;7.64;33.55;100183.25;4991264;28;20510;-83
2023/03/19 09:22:54;;;;;;;1.00;1.00;;;;;;;8.02;33.49;100175.59;4958598;28;20060;-82
2023/03/19 09:25:21;;;;;;;1.00;1.00;;;;;;;8.25;32.50;100189.59;4991438;28;20054;-82
2023/03/19 09:27:48;;;;;;;1.00;1.00;;;;;;;8.08;32.69;100182.88;4991262;28;20054;-81
2023/03/19 09:30:31;;;;;;;1.20;1.10;;;;;;;8.30;32.36;100186.28;4974113;28;20112;-81
2023/03/19 09:33:04;;;;;;;1.00;1.00;;;;;;;8.04;32.43;100160.09;4973866;28;20097;-83
2023/03/19 09:35:34;;;;;;;1.10;1.10;;;;;;;7.89;32.57;100164.78;4958226;28;20544;-83
2023/03/19 09:38:05;;;;;;;1.10;1.10;;;;;;;8.09;32.53;100186.41;4990654;28;20055;-83
2023/03/19 09:40:41;;;;;;;1.00;1.00;;;;;;;8.46;32.31;100161.75;4973837;28;20078;-84
2023/03/19 09:43:44;;;;;;;1.13;1.13;;;;;;;8.34;32.23;100167.91;4959529;28;20153;-83
2023/03/19 09:46:42;;;;;;;1.20;1.20;;;;;;;9.31;31.60;100158.53;4991052;28;20043;-83
2023/03/19 09:49:22;;;;;;;1.10;1.10;;;;;;;9.63;31.15;100162.25;4991464;28;20100;-82
2023/03/19 09:51:53;;;;;;;1.10;1.10;;;;;;;9.64;30.59;100158.50;4974300;28;20046;-84
2023/03/19 09:54:32;;;;;;;1.20;1.20;;;;;;;9.11;31.50;100150.47;4973812;28;20046;-83
2023/03/19 09:57:00;;;;;;;1.20;1.20;;;;;;;9.43;31.71;100159.56;4991006;28;20077;-83
2023/03/19 09:59:28;;;;;;;1.10;1.10;;;;;;;9.71;30.92;100159.31;4974064;28;20129;-82
2023/03/19 10:02:18;;;;;;;1.10;1.10;;;;;;;9.44;31.34;100138.84;4973742;28;20096;-83
2023/03/19 10:04:57;;;;;;;1.10;1.10;;;;;;;9.03;31.68;100156.06;4977227;28;20057;-83
2023/03/19 10:07:58;;;;;;;1.20;1.20;;;;;;;9.22;32.01;100144.47;4977348;28;20050;-83
2023/03/19 10:10:49;;;;;;;1.10;1.10;;;;;;;10.09;31.20;100144.28;4987239;28;20093;-81
2023/03/19 10:13:24;;;;;;;1.10;1.10;;;;;;;10.52;30.36;100141.00;4986707;28;20054;-82
2023/03/19 10:15:52;;;;;;;1.10;1.10;;;;;;;11.03;29.77;100131.91;4990348;28;20054;-83
2023/03/19 10:18:33;;;;;;;1.13;1.13;;;;;;;10.30;30.19;100126.97;4966509;28;20050;-81
2023/03/19 10:21:09;;;;;;;1.10;1.10;;;;;;;10.23;31.09;100135.09;4964650;28;20046;-84
2023/03/19 10:23:42;;;;;;;1.10;1.10;;;;;;;11.28;29.86;100140.03;4937831;28;20510;-84
2023/03/19 10:26:12;;;;;;;1.00;1.00;;;;;;;12.04;28.49;100140.75;4970936;28;20142;-84
2023/03/19 10:28:43;;;;;;;1.00;1.00;;;;;;;12.03;28.02;100134.50;4973136;28;20054;-83
2023/03/19 10:31:28;;;;;;;1.10;1.10;;;;;;;11.23;28.87;100137.16;4966482;28;20556;-83
2023/03/19 10:34:01;;;;;;;1.10;1.10;;;;;;;11.57;28.74;100124.16;4978498;28;20054;-83
2023/03/19 10:36:33;;;;;;;1.10;1.10;;;;;;;11.92;28.25;100127.13;4973679;28;20061;-83
2023/03/19 10:39:04;;;;;;;1.10;1.10;;;;;;;11.98;28.06;100115.41;4971006;28;20057;-83
2023/03/19 10:41:53;;;;;;;1.10;1.10;;;;;;;11.91;28.34;100125.47;4982007;28;20051;-83
2023/03/19 10:44:29;;;;;;;1.08;1.08;;;;;;;12.21;27.76;100130.13;4969248;28;20051;-84
2023/03/19 10:46:57;;;;;;;1.10;1.10;;;;;;;12.82;27.09;100115.50;4972211;28;20051;-82
2023/03/19 10:49:25;;;;;;;1.10;1.10;;;;;;;13.67;26.21;100106.13;4970680;28;20140;-83
2023/03/19 10:51:55;;;;;;;1.00;1.00;;;;;;;12.96;26.64;100114.25;4982059;28;20045;-82
2023/03/19 10:54:25;;;;;;;1.00;1.00;;;;;;;13.27;26.87;100108.75;4954404;28;20445;-83
2023/03/19 10:56:59;;;;;;;1.00;1.00;;;;;;;13.38;26.36;100114.19;4973168;28;20403;-84
2023/03/19 10:59:29;;;;;;;1.00;1.00;;;;;;;13.85;25.98;100100.59;4953994;28;20047;-84
2023/03/19 11:02:01;;;;;;;1.00;1.00;;;;;;;14.20;25.61;100096.91;4972556;28;20058;-82
2023/03/19 11:04:28;;;;;;;1.00;1.00;;;;;;;13.92;25.81;100094.19;4962145;28;20418;-84
2023/03/19 11:07:02;;;;;;;1.00;1.00;;;;;;;13.94;25.84;100105.63;4980426;28;20494;-83
2023/03/19 11:09:48;;;;;;;1.00;1.00;;;;;;;14.32;25.88;100097.69;4969168;28;20055;-83
2023/03/19 11:12:32;;;;;;;1.00;1.00;;;;;;;13.41;25.92;100097.44;4981145;28;20078;-83
2023/03/19 11:15:05;;;;;;;1.10;1.10;;;;;;;13.04;26.81;100101.41;4962585;28;20054;-83
2023/03/19 11:17:44;;;;;;;1.00;1.00;;;;;;;14.03;25.78;100086.03;4955612;28;20046;-84
2023/03/19 11:20:14;;;;;;;1.00;1.00;;;;;;;14.16;25.46;100084.09;4979092;28;20147;-83
2023/03/19 11:22:41;;;;;;;1.00;1.00;;;;;;;14.07;25.50;100080.94;4956830;28;20086;-84
2023/03/19 11:25:18;;;;;;;1.00;1.00;;;;;;;14.17;25.38;100083.84;4980027;28;20085;-85
2023/03/19 11:28:07;;;;;;;0.90;0.90;;;;;;;14.73;25.18;100071.31;4969490;28;20114;-84
2023/03/19 11:30:54;;;;;;;1.00;1.00;;;;;;;14.63;25.25;100079.28;4975772;28;20061;-85
2023/03/19 11:33:43;;;;;;;1.00;1.00;;;;;;;13.73;25.79;100071.84;4976118;28;20063;-84
2023/03/19 11:36:33;;;;;;;0.90;0.90;;;;;;;13.23;26.43;100076.66;4973649;28;20050;-84
2023/03/19 11:39:03;;;;;;;1.10;1.10;;;;;;;12.93;26.80;100065.94;4933760;29;20422;-83
2023/03/19 11:41:56;;;;;;;1.00;1.00;;;;;;;13.25;26.73;100062.88;4929794;29;20062;-85
2023/03/19 11:44:37;;;;;;;1.10;1.10;;;;;;;13.68;26.32;100058.97;4933068;29;20114;-85